DW0805 Ramloese DK current weather conditions

sailwx.info

Wind from 318 at 8 knots gusting 18

Air temperature 11.1° C
Dewpoint 8.2° C

Last reported at 2015-Sep-05 13:45 UTC.
Time now 2015-Sep-05 14:18 UTC

Location: N 56°01' E 012°05'.
View on Google Maps.

See reports from other nearby stations

  
Tides and Currents Weather Stations Pressure Air Temp Water Temp Dewpoint Dewpoint Depression Visibility Wind Speed Wind Dir Waves Ship Positions
date/time (UTC)wind fromknots sea level pressurealtimeterstation pressurevisibilityair tempwater tempwave heightnotes
2015-Sep-05 13:45 318 8 gusting 18 11.1
2015-Sep-05 13:35 306 6 gusting 15 11.1
2015-Sep-05 13:25 321 8 gusting 17 11.7
2015-Sep-05 13:15 307 9 gusting 18 12.2
2015-Sep-05 13:05 322 10 gusting 21 11.7
2015-Sep-05 12:55 347 16 gusting 22 13.3
2015-Sep-05 12:45 302 7 gusting 18 14.4
2015-Sep-05 12:35 288 11 gusting 18 15.0
2015-Sep-05 12:25 269 8 gusting 18 15.0
2015-Sep-05 12:15 267 14 gusting 20 15.6
2015-Sep-05 12:05 269 10 gusting 17 14.4
2015-Sep-05 11:55 272 10 gusting 18 13.9
2015-Sep-05 11:45 269 14 gusting 19 14.4
2015-Sep-05 11:35 302 9 gusting 15 15.0
2015-Sep-05 11:25 262 8 gusting 15 14.4
2015-Sep-05 11:15 335 8 gusting 15 14.4
2015-Sep-05 11:05 248 10 gusting 17 13.9
2015-Sep-05 10:55 284 12 gusting 18 12.8
2015-Sep-05 10:45 302 8 gusting 13 12.8
2015-Sep-05 10:35 253 4 gusting 8 11.7
2015-Sep-05 10:25 268 3 gusting 6 10.6
2015-Sep-05 10:15 335 1 gusting 7 10.0
2015-Sep-05 10:05 319 8 gusting 13 10.6
2015-Sep-05 09:55 304 7 gusting 15 11.1
2015-Sep-05 09:45 285 10 gusting 15 11.1
2015-Sep-05 09:35 335 10 gusting 19 11.7
2015-Sep-05 09:25 311 10 gusting 19 12.2
2015-Sep-05 09:15 317 8 gusting 13 12.8
2015-Sep-05 09:05 296 5 gusting 12 13.3
2015-Sep-05 08:55 320 5 gusting 10 13.3
2015-Sep-05 08:45 273 4 gusting 10 13.3
2015-Sep-05 08:35 274 4 gusting 10 13.3
2015-Sep-05 08:25 278 5 gusting 10 13.3
2015-Sep-05 08:15 306 3 gusting 10 12.8
2015-Sep-05 08:05 300 6 gusting 14 13.3
2015-Sep-05 07:55 314 5 gusting 10 13.3
2015-Sep-05 07:45 305 5 gusting 11 13.3
2015-Sep-05 07:35 320 7 gusting 13 13.3
2015-Sep-05 07:25 317 9 gusting 14 13.9
2015-Sep-05 07:15 318 6 gusting 12 13.3
2015-Sep-05 07:05 324 4 gusting 8 12.8
2015-Sep-05 06:55 325 5 gusting 11 12.8
2015-Sep-05 06:45 303 6 gusting 12 12.8
2015-Sep-05 06:35 319 6 gusting 12 12.8
2015-Sep-05 06:25 313 6 gusting 12 12.8
2015-Sep-05 06:15 321 6 gusting 10 12.2
2015-Sep-05 06:05 299 5 gusting 7 12.2
2015-Sep-05 05:55 295 5 gusting 10 12.2
2015-Sep-05 05:45 329 5 gusting 8 12.2
2015-Sep-05 05:35 318 4 gusting 8 12.2
2015-Sep-05 05:25 320 4 gusting 6 12.2
2015-Sep-05 05:15 317 1 gusting 8 12.2
2015-Sep-05 05:05 295 0 gusting 6 12.2
2015-Sep-05 04:55 340 11.7
2015-Sep-05 04:45 340 11.7
2015-Sep-05 04:35 340 1 gusting 6 12.2
2015-Sep-05 04:25 338 2 gusting 10 12.2
2015-Sep-05 04:15 335 2 gusting 6 12.2
2015-Sep-05 04:05 268 4 gusting 10 12.8
2015-Sep-05 03:55 214 6 gusting 11 12.8
2015-Sep-05 03:45 213 4 gusting 8 12.8
2015-Sep-05 03:35 210 4 gusting 8 13.3
2015-Sep-05 03:25 215 5 gusting 10 13.3
2015-Sep-05 03:15 212 7 gusting 11 13.3
2015-Sep-05 03:05 214 6 gusting 11 13.3
2015-Sep-05 02:55 206 4 gusting 8 13.3
2015-Sep-05 02:45 205 6 gusting 11 13.3
2015-Sep-05 02:35 208 6 gusting 11 13.3
2015-Sep-05 02:25 215 6 gusting 13 13.3
2015-Sep-05 02:15 216 8 gusting 13 13.3
2015-Sep-05 02:05 210 8 gusting 13 13.3
2015-Sep-05 01:55 213 10 gusting 13 13.3
2015-Sep-05 01:45 208 8 gusting 13 13.3
2015-Sep-05 01:35 207 10 gusting 14 13.3
2015-Sep-05 01:25 211 9 gusting 13 13.9
2015-Sep-05 01:15 208 8 gusting 12 13.9
2015-Sep-05 01:05 210 8 gusting 13 13.9
2015-Sep-05 00:55 213 8 gusting 13 13.3
2015-Sep-05 00:45 214 6 gusting 12 13.3
2015-Sep-05 00:35 204 10 gusting 14 13.9
2015-Sep-05 00:25 211 9 gusting 13 13.9
2015-Sep-05 00:15 222 7 gusting 13 13.9
2015-Sep-05 00:05 206 8 gusting 13 13.9
2015-Sep-04 23:55 206 5 gusting 12 13.9
2015-Sep-04 23:45 209 6 gusting 12 13.9
2015-Sep-04 23:35 211 8 gusting 14 13.9
2015-Sep-04 23:25 212 6 gusting 14 13.9
2015-Sep-04 23:15 217 10 gusting 17 13.9
2015-Sep-04 23:05 217 10 gusting 14 13.9
2015-Sep-04 22:55 214 6 gusting 14 13.9
2015-Sep-04 22:45 214 7 gusting 13 13.9
2015-Sep-04 22:35 210 7 gusting 13 13.9
2015-Sep-04 22:25 204 6 gusting 13 13.9
2015-Sep-04 22:15 226 5 gusting 13 13.9
2015-Sep-04 22:05 215 8 gusting 13 13.9
2015-Sep-04 21:55 215 7 gusting 13 13.9
2015-Sep-04 21:45 208 6 gusting 11 13.3
2015-Sep-04 21:35 192 4 gusting 8 13.3
2015-Sep-04 21:25 189 4 gusting 11 13.3
2015-Sep-04 21:15 194 5 gusting 10 13.3
2015-Sep-04 21:05 176 4 gusting 7 13.3
2015-Sep-04 20:55 162 2 gusting 6 13.3
2015-Sep-04 20:45 163 2 gusting 10 13.3
2015-Sep-04 20:35 181 5 gusting 10 13.3
2015-Sep-04 20:25 154 2 gusting 7 13.3
2015-Sep-04 20:15 141 4 gusting 6 13.3
2015-Sep-04 20:05 145 4 gusting 6 13.3
2015-Sep-04 19:55 181 1 gusting 6 13.3
2015-Sep-04 19:45 182 3 gusting 6 13.3
2015-Sep-04 19:35 176 5 gusting 8 13.3
2015-Sep-04 19:25 178 5 gusting 10 13.3
2015-Sep-04 19:15 181 5 gusting 8 13.3
2015-Sep-04 19:05 181 4 gusting 7 13.3
2015-Sep-04 18:55 180 4 gusting 6 13.3
2015-Sep-04 18:45 181 4 gusting 6 13.3
2015-Sep-04 18:35 193 2 gusting 8 13.3
2015-Sep-04 18:25 208 7 gusting 11 13.3
2015-Sep-04 18:15 218 5 gusting 7 13.3
2015-Sep-04 18:05 214 5 gusting 11 13.3
2015-Sep-04 17:55 213 5 gusting 11 13.3
2015-Sep-04 17:45 216 8 gusting 14 13.3
2015-Sep-04 17:35 223 10 gusting 13 13.9
2015-Sep-04 17:25 211 8 gusting 14 13.9
2015-Sep-04 17:15 224 11 gusting 13 13.9
2015-Sep-04 17:05 214 7 gusting 13 13.9
2015-Sep-04 16:55 214 7 gusting 13 14.4
2015-Sep-04 16:45 206 9 gusting 13 14.4
2015-Sep-04 16:35 224 11 gusting 15 14.4
2015-Sep-04 16:25 227 12 gusting 18 15.0
2015-Sep-04 16:15 228 12 gusting 18 15.6
2015-Sep-04 16:05 233 10 gusting 15 16.1
2015-Sep-04 15:55 226 8 gusting 15 16.7
2015-Sep-04 15:45 225 6 gusting 11 16.7
2015-Sep-04 15:35 221 5 gusting 13 16.7
2015-Sep-04 14:55 214 5 gusting 7 16.1
2015-Sep-04 14:35 218 7 gusting 10 16.1
2015-Sep-04 14:25 222 4 gusting 7 15.6
2015-Sep-04 14:15 244 0 gusting 4 15.0
2015-Sep-04 13:55 275 7 gusting 17 15.0
2015-Sep-04 13:45 243 1 gusting 5 15.0
2015-Sep-04 13:35 309 2 gusting 5 15.0
2015-Sep-04 13:25 335 5 gusting 8 14.4
2015-Sep-04 13:05 152 2 gusting 6 14.4
2015-Sep-04 12:45 052 3 gusting 10 15.6
2015-Sep-04 12:15 143 6 gusting 11 16.1
2015-Sep-04 11:56 171 3 gusting 8 16.1
2015-Sep-04 11:45 233 2 gusting 8 16.1
2015-Sep-04 11:35 119 0 gusting 6 15.6
2015-Sep-04 11:25 174 16.1
2015-Sep-04 11:15 174 0 gusting 2 16.1
2015-Sep-04 11:05 175 0 gusting 2 16.1
2015-Sep-04 10:55 173 0 gusting 2 16.7
2015-Sep-04 10:45 256 0 gusting 4 16.1
2015-Sep-04 10:35 335 15.0
2015-Sep-04 10:25 266 14.4
2015-Sep-04 10:15 313 2 gusting 17 15.6
2015-Sep-04 10:05 180 4 gusting 6 17.8
2015-Sep-04 09:55 200 5 gusting 7 18.3
2015-Sep-04 09:35 188 4 gusting 7 16.1
2015-Sep-04 09:15 180 2 gusting 7 17.2
2015-Sep-04 09:05 181 4 gusting 10 16.7
2015-Sep-04 08:55 150 4 gusting 11 16.7
2015-Sep-04 08:45 161 4 gusting 7 16.7
2015-Sep-04 08:35 160 1 gusting 7 15.6
2015-Sep-04 08:25 163 4 gusting 8 15.0
2015-Sep-04 07:55 187 2 gusting 5 14.4
2015-Sep-04 07:45 159 1 gusting 6 13.9
2015-Sep-04 07:35 162 1 gusting 6 14.4
2015-Sep-04 07:25 156 1 gusting 7 13.9
2015-Sep-04 07:15 165 3 gusting 6 13.9
2015-Sep-04 07:05 155 2 gusting 5 13.3
2015-Sep-04 06:55 158 1 gusting 5 13.3
2015-Sep-04 06:45 157 1 gusting 4 13.3
2015-Sep-04 06:35 159 0 gusting 5 13.3
2015-Sep-04 06:15 158 0 gusting 5 12.8
2015-Sep-04 06:05 148 0 gusting 6 12.2
2015-Sep-04 05:45 137 0 gusting 5 11.7
2015-Sep-04 05:25 137 1 gusting 5 11.1
2015-Sep-04 05:15 137 0 gusting 4 11.1
2015-Sep-04 05:05 137 0 gusting 4 10.6
2015-Sep-04 04:55 137 0 gusting 4 10.6
2015-Sep-04 04:45 137 2 gusting 5 10.6
2015-Sep-04 04:35 137 2 gusting 5 10.6
2015-Sep-04 04:25 137 2 gusting 5 10.6
2015-Sep-04 04:15 137 2 gusting 5 10.0
2015-Sep-04 04:05 137 0 gusting 5 10.0
2015-Sep-04 03:55 137 9.4
2015-Sep-04 03:45 137 9.4
2015-Sep-04 03:35 137 9.4
2015-Sep-04 03:25 137 10.0
2015-Sep-04 03:15 137 0 gusting 4 9.4
2015-Sep-04 03:05 137 0 gusting 1 8.9
2015-Sep-04 02:55 137 8.9
2015-Sep-04 02:45 137 9.4
2015-Sep-04 02:35 137 10.0
2015-Sep-04 02:05 137 0 gusting 4 10.0
2015-Sep-04 01:55 137 0 gusting 1 10.0
2015-Sep-04 01:45 137 0 gusting 1 10.0
2015-Sep-04 01:35 137 10.0
2015-Sep-04 01:25 137 0 gusting 4 10.0
2015-Sep-04 01:15 137 10.0
2015-Sep-04 01:05 137 10.0
2015-Sep-04 00:55 137 10.0
2015-Sep-04 00:45 137 10.0
2015-Sep-04 00:25 137 10.0
2015-Sep-04 00:15 137 2 gusting 5 10.0
2015-Sep-04 00:05 137 4 gusting 5 10.6
2015-Sep-03 23:55 137 1 gusting 5 11.1
2015-Sep-03 23:25 135 0 gusting 5 11.1
2015-Sep-03 23:05 134 1 gusting 4 11.1
2015-Sep-03 22:55 133 1 gusting 5 11.1
2015-Sep-03 22:45 134 0 gusting 5 11.1
2015-Sep-03 22:35 119 1 gusting 2 11.1
2015-Sep-03 22:25 119 2 gusting 5 11.1
2015-Sep-03 22:15 119 1 gusting 6 11.7
2015-Sep-03 22:05 158 4 gusting 6 12.2
2015-Sep-03 21:55 159 3 gusting 6 12.2
2015-Sep-03 21:45 148 4 gusting 7 12.2
2015-Sep-03 21:25 171 2 gusting 4 11.7
2015-Sep-03 21:15 171 1 gusting 5 12.2
2015-Sep-03 21:05 175 0 gusting 6 12.8
2015-Sep-03 20:55 171 1 gusting 6 12.2
2015-Sep-03 20:45 157 0 gusting 5 12.2
2015-Sep-03 20:35 153 4 gusting 7 12.8
2015-Sep-03 20:25 162 2 gusting 7 12.2
2015-Sep-03 20:15 161 3 gusting 6 12.2
2015-Sep-03 20:05 128 4 gusting 7 11.7
2015-Sep-03 19:55 148 1 gusting 5 12.2
2015-Sep-03 19:45 150 2 gusting 5 12.8
2015-Sep-03 19:35 139 2 gusting 6 12.8
2015-Sep-03 19:25 169 1 gusting 6 13.3
2015-Sep-03 19:05 157 2 gusting 7 13.3
2015-Sep-03 18:55 167 1 gusting 10 13.3
2015-Sep-03 18:45 183 3 gusting 8 13.3
2015-Sep-03 18:35 188 2 gusting 7 13.9
2015-Sep-03 18:15 156 2 gusting 8 13.9
2015-Sep-03 18:05 179 4 gusting 7 13.9
2015-Sep-03 17:45 159 2 gusting 7 14.4
2015-Sep-03 17:25 149 2 gusting 11 15.0
2015-Sep-03 17:05 170 6 gusting 10 15.6
2015-Sep-03 16:55 165 6 gusting 11 15.6
2015-Sep-03 16:35 192 2 gusting 10 16.1
2015-Sep-03 16:25 162 4 gusting 10 15.6
2015-Sep-03 15:45 191 7 gusting 12 16.7
2015-Sep-03 15:25 214 7 gusting 11 18.3
2015-Sep-03 15:05 186 5 gusting 11 18.9
2015-Sep-03 14:25 173 6 gusting 10 19.4
2015-Sep-03 14:15 190 7 gusting 11 19.4
2015-Sep-03 14:05 196 4 gusting 11 18.9